Unicom:                    122.8

AWOS:                  118.275

Elevation           1458’ MSL

TPA:                   2500’ MSL

06/24:         5003’ L   75’ W

PAPI:       06/Left     24/Left

(Operate lights on unicom freq.)

Traffic Pattern: Left

Beacon: Sunset to Sunrise

Windsock: yes, lighted

Segmented Circle: No

 

Cleveland Center: 126.72/291.65

FSS: Altoona

[Source: ADDS]
METAR
KFKL 051133Z AUTO 21005KT 1/2SM FG OVC001 17/17 A2992 RMK AO2 =
KFKL 051120Z 0512/0612 18004KT 1/2SM FG OVC002 FM051300 20003KT 3SM BR BKN007 FM051500 20005KT P6SM BKN010 FM051700 21005KT P6SM BKN020 FM051900 22005KT P6SM BKN035 FM060000 23003KT P6SM SCT035
TAF
KFKL 051120Z 0512/0612 18004KT 1/2SM FG OVC002 FM051300 20003KT 3SM BR BKN007 FM051500 20005KT P6SM BKN010 FM051700 21005KT P6SM BKN020 FM051900 22005KT P6SM BKN035 FM060000 23003KT P6SM SCT035 =
[Source: ADDS]
METAR
KDUJ 051139Z AUTO 23005KT 2SM BR OVC002 17/17 A2992 RMK AO2 T01720167 =
KDUJ 051120Z 0512/0612 24003KT 3SM BR OVC007 FM051500 23003KT P6SM OVC010 FM051800 24005KT P6SM BKN025 FM052100 25005KT P6SM BKN035 FM060000 25005KT P6SM SCT025
TAF
KDUJ 051120Z 0512/0612 24003KT 3SM BR OVC007 FM051500 23003KT P6SM OVC010 FM051800 24005KT P6SM BKN025 FM052100 25005KT P6SM BKN035 FM060000 25005KT P6SM SCT025 =

Information.  


[Source: ADDS]
METAR
KFKL 051133Z AUTO 21005KT 1/2SM FG OVC001 17/17 A2992 RMK AO2 =
KFKL 051120Z 0512/0612 18004KT 1/2SM FG OVC002 FM051300 20003KT 3SM BR BKN007 FM051500 20005KT P6SM BKN010 FM051700 21005KT P6SM BKN020 FM051900 22005KT P6SM BKN035 FM060000 23003KT P6SM SCT035
TAF
KFKL 051120Z 0512/0612 18004KT 1/2SM FG OVC002 FM051300 20003KT 3SM BR BKN007 FM051500 20005KT P6SM BKN010 FM051700 21005KT P6SM BKN020 FM051900 22005KT P6SM BKN035 FM060000 23003KT P6SM SCT035 =
[Source: ADDS]
METAR
KDUJ 051139Z AUTO 23005KT 2SM BR OVC002 17/17 A2992 RMK AO2 T01720167 =
KDUJ 051120Z 0512/0612 24003KT 3SM BR OVC007 FM051500 23003KT P6SM OVC010 FM051800 24005KT P6SM BKN025 FM052100 25005KT P6SM BKN035 FM060000 25005KT P6SM SCT025
TAF
KDUJ 051120Z 0512/0612 24003KT 3SM BR OVC007 FM051500 23003KT P6SM OVC010 FM051800 24005KT P6SM BKN025 FM052100 25005KT P6SM BKN035 FM060000 25005KT P6SM SCT025 =